Time;durP1;ratioP1;P1;durP2;ratioP2;P2;SDS_P1;SDS_P2;PMS_P1;PMS_P2;Temp;Humidity;BMP_temperature;BMP_pressure;BME280_temperature;BME280_humidity;BME280_pressure;Samples;Min_cycle;Max_cycle;Signal;HPM_P1;HPM_P2
2020/12/12 00:00:40;;;;;;;17.65;6.70;;;3.30;99.90;;;;;;5065059;28;20029;-77
2020/12/12 00:03:05;;;;;;;19.27;7.32;;;3.40;99.90;;;;;;5065575;28;20025;-74
2020/12/12 00:05:31;;;;;;;14.18;6.95;;;3.40;99.90;;;;;;5064395;28;20041;-76
2020/12/12 00:07:57;;;;;;;23.17;7.47;;;3.40;99.90;;;;;;5064415;28;20028;-76
2020/12/12 00:10:24;;;;;;;13.30;5.80;;;3.40;99.90;;;;;;5064936;28;20491;-75
2020/12/12 00:12:51;;;;;;;18.67;7.13;;;3.50;99.90;;;;;;5066200;28;20025;-74
2020/12/12 00:15:16;;;;;;;21.23;7.22;;;3.50;99.90;;;;;;5066481;28;20027;-74
2020/12/12 00:17:42;;;;;;;15.75;7.95;;;3.50;99.90;;;;;;5066556;28;20036;-75
2020/12/12 00:20:07;;;;;;;15.15;7.75;;;3.50;99.90;;;;;;5066428;28;20033;-76
2020/12/12 00:22:33;;;;;;;15.85;7.22;;;3.60;99.90;;;;;;5066559;28;20024;-74
2020/12/12 00:24:58;;;;;;;23.42;7.97;;;3.60;99.90;;;;;;5065219;28;20021;-75
2020/12/12 00:27:24;;;;;;;20.13;7.05;;;3.60;99.90;;;;;;5066064;28;20032;-74
2020/12/12 00:29:49;;;;;;;16.08;7.28;;;3.60;99.90;;;;;;5066110;28;20017;-74
2020/12/12 00:32:15;;;;;;;21.55;8.27;;;3.60;99.90;;;;;;5066073;28;20028;-74
2020/12/12 00:34:41;;;;;;;22.00;9.13;;;3.60;99.90;;;;;;5065998;28;20017;-74
2020/12/12 00:37:06;;;;;;;17.55;7.60;;;3.60;99.90;;;;;;5066165;28;20076;-75
2020/12/12 00:39:32;;;;;;;25.42;9.18;;;3.60;99.90;;;;;;5066139;28;20025;-75
2020/12/12 00:41:57;;;;;;;20.25;8.48;;;3.60;99.90;;;;;;5066370;28;20064;-73
2020/12/12 00:44:23;;;;;;;18.88;8.25;;;3.60;99.90;;;;;;5064566;28;20021;-74
2020/12/12 00:46:48;;;;;;;11.60;5.90;;;3.60;99.90;;;;;;5064670;28;20021;-74
2020/12/12 00:49:14;;;;;;;23.98;8.02;;;3.60;99.90;;;;;;5064411;28;20025;-76
2020/12/12 00:51:39;;;;;;;18.63;8.02;;;3.60;99.90;;;;;;5065830;28;20033;-74
2020/12/12 00:54:05;;;;;;;21.50;8.48;;;3.60;99.90;;;;;;5064497;28;20478;-76
2020/12/12 00:56:31;;;;;;;20.58;8.98;;;3.70;99.90;;;;;;5064557;28;20025;-76
2020/12/12 00:58:56;;;;;;;14.25;6.97;;;3.60;99.90;;;;;;5065888;28;20069;-75
2020/12/12 01:01:22;;;;;;;17.25;6.47;;;3.70;99.90;;;;;;5065484;28;20029;-75
2020/12/12 01:03:48;;;;;;;15.25;8.40;;;3.60;99.90;;;;;;5065499;28;20564;-74
2020/12/12 01:06:15;;;;;;;23.13;8.15;;;3.70;99.90;;;;;;5065382;28;20017;-74
2020/12/12 01:08:41;;;;;;;21.80;8.50;;;3.70;99.90;;;;;;5065413;28;20020;-74
2020/12/12 01:11:08;;;;;;;16.83;7.13;;;3.60;99.90;;;;;;5065522;28;20407;-74
2020/12/12 01:13:34;;;;;;;19.55;7.60;;;3.70;99.90;;;;;;5064271;28;20028;-75
2020/12/12 01:16:06;;;;;;;28.50;10.02;;;3.70;99.90;;;;;;5065495;28;20021;-76
2020/12/12 01:18:31;;;;;;;17.90;9.98;;;3.70;99.90;;;;;;5065389;28;20067;-74
2020/12/12 01:20:57;;;;;;;17.35;7.10;;;3.70;99.90;;;;;;5064211;28;20021;-75
2020/12/12 01:23:22;;;;;;;18.63;9.73;;;3.70;99.90;;;;;;5063823;28;20040;-74
2020/12/12 01:25:48;;;;;;;19.27;9.07;;;3.60;99.90;;;;;;5065014;28;20009;-73
2020/12/12 01:28:14;;;;;;;28.58;9.18;;;3.60;99.90;;;;;;5065196;28;20029;-74
2020/12/12 01:30:39;;;;;;;21.95;8.73;;;3.60;99.90;;;;;;5065049;28;20016;-74
2020/12/12 01:33:05;;;;;;;17.88;7.22;;;3.60;99.90;;;;;;5065047;28;20032;-75
2020/12/12 01:35:30;;;;;;;19.23;7.82;;;3.50;99.90;;;;;;5063792;28;20027;-75
2020/12/12 01:37:56;;;;;;;21.95;9.18;;;3.50;99.90;;;;;;5065159;28;20016;-74
2020/12/12 01:40:21;;;;;;;33.20;10.90;;;3.50;99.90;;;;;;5064762;28;20084;-74
2020/12/12 01:42:47;;;;;;;19.23;9.98;;;3.50;99.90;;;;;;5064895;28;20029;-75
2020/12/12 01:45:12;;;;;;;21.40;8.93;;;3.50;99.90;;;;;;5063418;28;20021;-75
2020/12/12 01:47:39;;;;;;;24.02;9.10;;;3.40;99.90;;;;;;5064920;28;20021;-75
2020/12/12 01:50:06;;;;;;;22.40;8.32;;;3.40;99.90;;;;;;5064676;28;20028;-76
2020/12/12 01:52:32;;;;;;;20.83;8.52;;;3.40;99.90;;;;;;5064543;28;20112;-75
2020/12/12 01:54:59;;;;;;;30.25;8.57;;;3.40;99.90;;;;;;5064885;28;20025;-75
2020/12/12 01:57:24;;;;;;;22.35;8.52;;;3.30;99.90;;;;;;5063037;28;20028;-74
2020/12/12 01:59:51;;;;;;;16.35;7.70;;;3.40;99.90;;;;;;5063315;28;20025;-74
2020/12/12 02:02:18;;;;;;;19.63;8.50;;;3.40;99.90;;;;;;5064229;28;20025;-74
2020/12/12 02:04:55;;;;;;;27.27;9.63;;;3.40;99.90;;;;;;5063096;28;20040;-75
2020/12/12 02:07:22;;;;;;;23.67;8.55;;;3.40;99.90;;;;;;5063104;28;20013;-75
2020/12/12 02:09:48;;;;;;;26.02;9.95;;;3.40;99.90;;;;;;5064507;28;20017;-75
2020/12/12 02:12:15;;;;;;;26.88;9.18;;;3.40;99.90;;;;;;5064320;28;20029;-76
2020/12/12 02:14:41;;;;;;;21.70;9.23;;;3.40;99.90;;;;;;5064542;28;20029;-76
2020/12/12 02:17:09;;;;;;;27.58;7.95;;;3.40;99.90;;;;;;5064654;28;20021;-76
2020/12/12 02:19:35;;;;;;;21.10;8.50;;;3.50;99.90;;;;;;5063248;28;20013;-74
2020/12/12 02:22:06;;;;;;;23.50;7.78;;;3.50;99.90;;;;;;5064553;28;20028;-76
2020/12/12 02:24:35;;;;;;;21.05;7.95;;;3.50;99.90;;;;;;5064589;28;20028;-77
2020/12/12 02:27:03;;;;;;;23.75;8.95;;;3.50;99.90;;;;;;5064619;28;20013;-75
2020/12/12 02:29:41;;;;;;;18.23;8.50;;;3.60;99.90;;;;;;5064324;28;20104;-76
2020/12/12 02:32:08;;;;;;;21.23;10.07;;;3.50;99.90;;;;;;5064002;28;20033;-76
2020/12/12 02:34:34;;;;;;;25.92;9.25;;;3.60;99.90;;;;;;5064226;28;20028;-77
2020/12/12 02:36:59;;;;;;;18.02;9.73;;;3.60;99.90;;;;;;5064490;28;20072;-76
2020/12/12 02:39:25;;;;;;;21.92;10.13;;;3.60;99.90;;;;;;5063061;28;20029;-75
2020/12/12 02:41:50;;;;;;;21.63;8.82;;;4.00;99.90;;;;;;5064177;28;20009;-75
2020/12/12 02:44:16;;;;;;;20.08;7.82;;;3.70;99.90;;;;;;5064207;28;20021;-75
2020/12/12 02:46:42;;;;;;;13.90;6.95;;;3.70;99.90;;;;;;5064166;28;20021;-76
2020/12/12 02:49:07;;;;;;;21.70;9.05;;;3.70;99.90;;;;;;5064002;28;20087;-76
2020/12/12 02:51:39;;;;;;;23.77;9.07;;;3.70;99.90;;;;;;5064018;28;20033;-75
2020/12/12 02:54:04;;;;;;;25.25;9.85;;;3.70;99.90;;;;;;5064254;28;20025;-76
2020/12/12 02:56:30;;;;;;;18.98;9.30;;;3.70;99.90;;;;;;5064526;28;20355;-77
2020/12/12 02:58:55;;;;;;;21.67;8.10;;;3.70;99.90;;;;;;5063282;28;20017;-75
2020/12/12 03:01:21;;;;;;;20.98;9.73;;;3.70;99.90;;;;;;5062884;28;20029;-75
2020/12/12 03:03:46;;;;;;;20.52;8.75;;;3.70;99.90;;;;;;5063856;28;20053;-75
2020/12/12 03:06:12;;;;;;;27.42;9.15;;;3.70;99.90;;;;;;5063849;28;20028;-76
2020/12/12 03:08:37;;;;;;;26.73;9.00;;;3.70;99.90;;;;;;5063435;28;20025;-75
2020/12/12 03:11:03;;;;;;;15.88;8.23;;;3.70;99.90;;;;;;5066442;28;20028;-75
2020/12/12 03:13:28;;;;;;;21.83;8.88;;;3.70;99.90;;;;;;5066455;28;20094;-76
2020/12/12 03:15:54;;;;;;;17.65;8.38;;;3.70;99.90;;;;;;5066650;28;20036;-76
2020/12/12 03:18:20;;;;;;;20.65;9.10;;;3.70;99.90;;;;;;5067760;28;20032;-76
2020/12/12 03:20:45;;;;;;;18.60;8.70;;;3.70;99.90;;;;;;5066304;28;20024;-74
2020/12/12 03:23:11;;;;;;;20.92;8.10;;;3.70;99.90;;;;;;5067299;28;20028;-74
2020/12/12 03:25:38;;;;;;;21.52;9.13;;;3.70;99.90;;;;;;5066297;28;20025;-75
2020/12/12 03:28:04;;;;;;;22.70;9.27;;;3.70;99.90;;;;;;5067348;28;20013;-76
2020/12/12 03:30:29;;;;;;;23.17;10.05;;;3.70;99.90;;;;;;5067682;28;20135;-76
2020/12/12 03:32:55;;;;;;;22.17;9.70;;;3.60;99.90;;;;;;5067681;28;20096;-74
2020/12/12 03:35:20;;;;;;;32.90;10.07;;;3.70;99.90;;;;;;5067395;28;20032;-74
2020/12/12 03:37:46;;;;;;;23.02;8.52;;;3.70;99.90;;;;;;5067187;28;20025;-75
2020/12/12 03:40:11;;;;;;;18.27;8.00;;;3.70;99.90;;;;;;5065696;28;20025;-76
2020/12/12 03:42:37;;;;;;;19.05;8.95;;;3.70;99.90;;;;;;5065874;28;20025;-75
2020/12/12 03:45:03;;;;;;;18.55;8.98;;;3.70;99.90;;;;;;5065901;28;20021;-76
2020/12/12 03:47:28;;;;;;;19.00;7.35;;;3.70;99.90;;;;;;5067188;28;20052;-76
2020/12/12 03:49:54;;;;;;;20.67;7.50;;;3.70;99.90;;;;;;5067109;28;20461;-75
2020/12/12 03:52:19;;;;;;;26.45;10.90;;;3.70;99.90;;;;;;5065614;28;20041;-75
2020/12/12 03:54:45;;;;;;;22.50;9.50;;;3.60;99.90;;;;;;5065776;28;20040;-74
2020/12/12 03:57:12;;;;;;;17.52;9.10;;;3.70;99.90;;;;;;5066617;28;20017;-76
2020/12/12 03:59:37;;;;;;;25.98;9.60;;;3.60;99.90;;;;;;5065296;28;20021;-76
2020/12/12 04:02:03;;;;;;;18.33;7.57;;;3.70;99.90;;;;;;5066935;28;20025;-76
2020/12/12 04:04:28;;;;;;;27.52;10.13;;;3.70;99.90;;;;;;5066606;28;20069;-75
2020/12/12 04:06:54;;;;;;;29.88;10.63;;;3.60;99.90;;;;;;5065733;28;20017;-75
2020/12/12 04:09:19;;;;;;;17.38;8.82;;;3.70;99.90;;;;;;5065465;28;20089;-75
2020/12/12 04:11:45;;;;;;;24.33;8.55;;;3.70;99.90;;;;;;5066399;28;20025;-75
2020/12/12 04:14:11;;;;;;;21.05;8.27;;;3.70;99.90;;;;;;5065197;28;20025;-75
2020/12/12 04:16:36;;;;;;;25.33;9.95;;;3.70;99.90;;;;;;5066417;28;20107;-76
2020/12/12 04:19:02;;;;;;;16.33;8.75;;;3.60;99.90;;;;;;5066207;28;20476;-78
2020/12/12 04:21:27;;;;;;;28.45;9.82;;;3.70;99.90;;;;;;5066497;28;20039;-75
2020/12/12 04:23:53;;;;;;;27.42;10.52;;;3.70;99.90;;;;;;5065093;28;20021;-75
2020/12/12 04:26:19;;;;;;;20.38;8.77;;;3.60;99.90;;;;;;5066662;28;20027;-75
2020/12/12 04:28:44;;;;;;;25.35;10.02;;;3.60;99.90;;;;;;5066289;28;20025;-75
2020/12/12 04:31:10;;;;;;;25.90;10.50;;;3.60;99.90;;;;;;5066027;28;20067;-76
2020/12/12 04:33:36;;;;;;;22.98;9.45;;;3.50;99.90;;;;;;5066207;28;20397;-75
2020/12/12 04:36:05;;;;;;;26.25;9.68;;;3.60;99.90;;;;;;5066179;28;20446;-76
2020/12/12 04:38:32;;;;;;;28.95;10.82;;;3.50;99.90;;;;;;5066144;28;20465;-76
2020/12/12 04:40:58;;;;;;;35.20;10.50;;;3.50;99.90;;;;;;5064947;28;20048;-76
2020/12/12 04:43:25;;;;;;;28.17;10.48;;;3.50;99.90;;;;;;5066165;28;20033;-76
2020/12/12 04:45:52;;;;;;;25.92;10.77;;;3.50;99.90;;;;;;5066135;28;20146;-76
2020/12/12 04:48:18;;;;;;;21.70;10.48;;;3.50;99.90;;;;;;5064412;28;20029;-75
2020/12/12 04:50:45;;;;;;;21.50;9.05;;;3.50;99.90;;;;;;5064490;28;20424;-76
2020/12/12 04:53:19;;;;;;;17.92;8.68;;;3.50;99.90;;;;;;5065555;28;20044;-76
2020/12/12 04:55:50;;;;;;;29.77;11.32;;;3.40;99.90;;;;;;5064290;28;20108;-76
2020/12/12 04:58:18;;;;;;;21.52;10.07;;;3.50;99.90;;;;;;5065623;28;20063;-74
2020/12/12 05:00:46;;;;;;;24.77;9.40;;;3.50;99.90;;;;;;5065598;28;20028;-75
2020/12/12 05:03:14;;;;;;;20.90;9.75;;;3.40;99.90;;;;;;5065455;28;20017;-74
2020/12/12 05:05:40;;;;;;;32.20;12.35;;;3.40;99.90;;;;;;5064197;28;20021;-75
2020/12/12 05:08:08;;;;;;;26.67;10.65;;;3.40;99.90;;;;;;5065685;28;20087;-76
2020/12/12 05:10:41;;;;;;;27.67;10.68;;;3.40;99.90;;;;;;5065427;28;20024;-76
2020/12/12 05:13:24;;;;;;;29.20;11.20;;;3.40;99.90;;;;;;5065350;28;20033;-75
2020/12/12 05:15:54;;;;;;;24.27;10.30;;;3.40;99.90;;;;;;5065247;28;20078;-75
2020/12/12 05:18:21;;;;;;;24.77;10.35;;;3.40;99.90;;;;;;5065523;28;20147;-75
2020/12/12 05:20:47;;;;;;;19.27;9.27;;;3.40;99.90;;;;;;5065491;28;20082;-78
2020/12/12 05:23:14;;;;;;;27.77;11.23;;;3.40;99.90;;;;;;5063864;28;20021;-76
2020/12/12 05:25:41;;;;;;;22.02;10.38;;;3.40;99.90;;;;;;5065210;28;20025;-76
2020/12/12 05:28:08;;;;;;;25.20;9.48;;;3.40;99.90;;;;;;5065330;28;20017;-76
2020/12/12 05:30:38;;;;;;;26.25;9.98;;;3.40;99.90;;;;;;5063415;28;20080;-77
2020/12/12 05:33:06;;;;;;;28.13;9.77;;;3.40;99.90;;;;;;5063211;28;20032;-78
2020/12/12 05:35:32;;;;;;;22.58;9.40;;;3.40;99.90;;;;;;5063723;28;20081;-77
2020/12/12 05:38:02;;;;;;;21.67;9.82;;;3.40;99.90;;;;;;5063132;28;20023;-77
2020/12/12 05:40:28;;;;;;;21.65;9.82;;;3.40;99.90;;;;;;5063904;28;20047;-77
2020/12/12 05:42:54;;;;;;;30.58;9.73;;;3.40;99.90;;;;;;5064916;28;20021;-78
2020/12/12 05:45:19;;;;;;;25.25;9.45;;;3.40;99.90;;;;;;5064922;28;20032;-76
2020/12/12 05:47:45;;;;;;;20.98;9.48;;;3.40;99.90;;;;;;5064968;28;20017;-75
2020/12/12 05:50:11;;;;;;;19.00;9.00;;;3.40;99.90;;;;;;5064929;28;20025;-76
2020/12/12 05:52:41;;;;;;;19.55;9.02;;;3.30;99.90;;;;;;5063345;28;20127;-77
2020/12/12 05:55:08;;;;;;;30.17;11.32;;;3.40;99.90;;;;;;5064505;28;20025;-77
2020/12/12 05:57:38;;;;;;;18.35;8.45;;;3.40;99.90;;;;;;5063402;28;20021;-77
2020/12/12 06:00:05;;;;;;;31.85;10.93;;;3.40;99.90;;;;;;5062731;28;20021;-76
2020/12/12 06:02:35;;;;;;;26.40;10.45;;;3.40;99.90;;;;;;5064623;28;20017;-77
2020/12/12 06:05:05;;;;;;;27.08;9.15;;;3.40;99.90;;;;;;5062883;28;20085;-80
2020/12/12 06:07:32;;;;;;;32.63;10.13;;;3.40;99.90;;;;;;5063065;28;20025;-78
2020/12/12 06:10:07;;;;;;;26.20;10.10;;;3.40;99.90;;;;;;5063345;28;20024;-77
2020/12/12 06:12:33;;;;;;;36.72;12.77;;;3.40;99.90;;;;;;5064558;28;20029;-77
2020/12/12 06:15:00;;;;;;;25.38;10.68;;;3.40;99.90;;;;;;5064417;28;20048;-77
2020/12/12 06:17:36;;;;;;;21.35;10.05;;;3.40;99.90;;;;;;5064367;28;20085;-76
2020/12/12 06:20:03;;;;;;;19.65;9.57;;;3.40;99.90;;;;;;5064092;28;20017;-78
2020/12/12 06:22:32;;;;;;;19.05;8.10;;;3.40;99.90;;;;;;5064323;28;20029;-77
2020/12/12 06:25:03;;;;;;;21.17;10.18;;;3.40;99.90;;;;;;5064381;28;20024;-76
2020/12/12 06:27:44;;;;;;;21.63;9.77;;;3.40;99.90;;;;;;5064452;28;20028;-78
2020/12/12 06:30:12;;;;;;;28.73;11.10;;;3.40;99.90;;;;;;5064276;28;20029;-77
2020/12/12 06:32:39;;;;;;;19.23;9.55;;;3.40;99.90;;;;;;5064125;28;20035;-77
2020/12/12 06:35:07;;;;;;;18.92;8.70;;;3.40;99.90;;;;;;5064257;28;20024;-77
2020/12/12 06:37:38;;;;;;;21.67;10.27;;;3.40;99.90;;;;;;5064137;28;20021;-78
2020/12/12 06:40:09;;;;;;;22.60;10.77;;;3.40;99.90;;;;;;5064343;28;20036;-78
2020/12/12 06:42:42;;;;;;;29.20;10.48;;;3.40;99.90;;;;;;5064782;28;20029;-78
2020/12/12 06:45:17;;;;;;;23.70;9.60;;;3.40;99.90;;;;;;5067976;28;20031;-77
2020/12/12 06:47:44;;;;;;;30.90;10.57;;;3.40;99.90;;;;;;5068027;28;20021;-76
2020/12/12 06:50:11;;;;;;;29.30;12.57;;;3.40;99.90;;;;;;5067819;28;20070;-78
2020/12/12 06:52:37;;;;;;;19.67;10.48;;;3.40;99.90;;;;;;5066554;28;20432;-77
2020/12/12 06:55:13;;;;;;;32.45;12.73;;;3.40;99.90;;;;;;5068022;28;20461;-78
2020/12/12 07:00:07;;;;;;;22.52;9.40;;;3.50;99.90;;;;;;5067799;28;20021;-78
2020/12/12 07:02:36;;;;;;;27.45;11.07;;;3.50;99.90;;;;;;5067919;28;20036;-76
2020/12/12 07:05:18;;;;;;;24.55;11.35;;;3.50;99.90;;;;;;5067541;28;20076;-77
2020/12/12 07:07:44;;;;;;;33.35;9.57;;;3.40;99.90;;;;;;5067813;28;20029;-76
2020/12/12 07:10:10;;;;;;;23.60;10.75;;;3.40;99.90;;;;;;5067392;28;20029;-76
2020/12/12 07:12:39;;;;;;;17.38;7.80;;;3.40;99.90;;;;;;5067690;28;20029;-78
2020/12/12 07:15:05;;;;;;;26.75;10.60;;;3.40;99.90;;;;;;5066340;28;20029;-77
2020/12/12 07:17:33;;;;;;;25.50;9.82;;;3.40;99.90;;;;;;5067618;28;20032;-76
2020/12/12 07:20:00;;;;;;;25.65;10.30;;;3.40;99.90;;;;;;5066058;28;20059;-77
2020/12/12 07:22:28;;;;;;;33.00;12.27;;;3.40;99.90;;;;;;5055815;28;20025;-76
2020/12/12 07:24:55;;;;;;;17.95;8.93;;;3.40;99.90;;;;;;5047742;28;20432;-76
2020/12/12 07:27:21;;;;;;;22.98;10.15;;;3.50;99.90;;;;;;5047262;28;20017;-76
2020/12/12 07:29:46;;;;;;;22.95;9.70;;;3.50;99.90;;;;;;5046944;28;20081;-77
2020/12/12 07:32:13;;;;;;;14.45;8.98;;;3.50;99.90;;;;;;5065800;28;20071;-75
2020/12/12 07:34:39;;;;;;;21.20;8.57;;;3.40;99.90;;;;;;5066977;28;20021;-77
2020/12/12 07:37:09;;;;;;;20.65;10.50;;;3.40;99.90;;;;;;5065799;28;20079;-76
2020/12/12 07:39:36;;;;;;;30.88;11.27;;;3.40;99.90;;;;;;5067395;28;20025;-76
2020/12/12 07:42:05;;;;;;;25.67;10.13;;;3.40;99.90;;;;;;5067077;28;20025;-76
2020/12/12 07:44:32;;;;;;;24.58;9.32;;;3.40;99.90;;;;;;5065665;28;20032;-75
2020/12/12 07:47:03;;;;;;;24.42;9.88;;;3.40;99.90;;;;;;5067034;28;20033;-76
2020/12/12 07:49:34;;;;;;;20.20;9.50;;;3.50;99.90;;;;;;5066831;28;20021;-77
2020/12/12 07:52:06;;;;;;;26.65;10.02;;;3.50;99.90;;;;;;5066876;28;20126;-77
2020/12/12 07:54:36;;;;;;;23.98;9.05;;;3.50;99.90;;;;;;5066089;28;20020;-76
2020/12/12 07:57:04;;;;;;;32.13;11.05;;;3.50;99.90;;;;;;5066850;28;20021;-77
2020/12/12 07:59:31;;;;;;;19.13;9.68;;;3.50;99.90;;;;;;5066497;28;20035;-78
2020/12/12 08:02:05;;;;;;;25.60;9.10;;;3.50;99.90;;;;;;5065548;28;20111;-76
2020/12/12 08:04:32;;;;;;;24.77;9.30;;;3.50;99.90;;;;;;5066534;28;20048;-77
2020/12/12 08:06:57;;;;;;;26.75;10.85;;;3.50;99.90;;;;;;5066741;28;20040;-75
2020/12/12 08:09:24;;;;;;;37.30;9.23;;;3.50;99.90;;;;;;5062582;28;20025;-75
2020/12/12 08:12:01;;;;;;;23.80;9.57;;;3.50;99.90;;;;;;5065633;28;20090;-75
2020/12/12 08:14:29;;;;;;;22.95;9.55;;;3.50;99.90;;;;;;5066085;28;20086;-75
2020/12/12 08:16:58;;;;;;;29.38;9.90;;;3.40;99.90;;;;;;5064796;28;20049;-75
2020/12/12 08:19:24;;;;;;;26.88;11.98;;;3.40;99.90;;;;;;5064401;28;20013;-75
2020/12/12 08:22:01;;;;;;;29.42;10.57;;;3.40;99.90;;;;;;5065509;28;20025;-76
2020/12/12 08:24:27;;;;;;;22.45;9.85;;;3.40;99.90;;;;;;5066503;28;20100;-75
2020/12/12 08:26:53;;;;;;;29.15;9.93;;;3.50;99.90;;;;;;5066016;28;20067;-75
2020/12/12 08:29:18;;;;;;;25.08;9.50;;;3.50;99.90;;;;;;5064164;28;20032;-75
2020/12/12 08:31:44;;;;;;;30.77;11.38;;;3.50;99.90;;;;;;5064172;28;20029;-75
2020/12/12 08:34:19;;;;;;;31.13;11.18;;;3.50;99.90;;;;;;5064503;28;20095;-75
2020/12/12 08:36:45;;;;;;;22.02;9.57;;;3.50;99.90;;;;;;5064493;28;20021;-75
2020/12/12 08:39:11;;;;;;;24.52;10.23;;;3.50;99.90;;;;;;5065036;28;20029;-75
2020/12/12 08:41:39;;;;;;;27.48;9.68;;;3.50;99.90;;;;;;5064998;28;20021;-75
2020/12/12 08:44:06;;;;;;;27.25;9.93;;;3.60;99.90;;;;;;5064732;28;20116;-76
2020/12/12 08:46:32;;;;;;;23.23;9.98;;;3.60;99.90;;;;;;5065487;28;20029;-75
2020/12/12 08:48:58;;;;;;;32.83;11.32;;;3.60;99.90;;;;;;5065432;28;20025;-75
2020/12/12 08:51:25;;;;;;;29.77;11.68;;;3.60;99.90;;;;;;5063658;28;20032;-74
2020/12/12 08:53:51;;;;;;;25.63;9.30;;;3.60;99.90;;;;;;5063715;28;20167;-74
2020/12/12 08:56:26;;;;;;;27.38;11.38;;;3.70;99.90;;;;;;5064982;28;20025;-75
2020/12/12 08:59:06;;;;;;;26.38;10.23;;;3.60;99.90;;;;;;5063574;28;20049;-75
2020/12/12 09:01:45;;;;;;;28.50;11.55;;;3.70;99.90;;;;;;5065325;28;20088;-76
2020/12/12 09:04:12;;;;;;;23.92;10.20;;;3.70;99.90;;;;;;5063797;28;20052;-74
2020/12/12 09:06:40;;;;;;;26.38;9.60;;;3.70;99.90;;;;;;5065304;28;20020;-75
2020/12/12 09:09:21;;;;;;;29.38;11.25;;;3.70;99.90;;;;;;5065102;28;20031;-76
2020/12/12 09:11:57;;;;;;;28.98;10.55;;;3.70;99.90;;;;;;5063684;28;20025;-76
2020/12/12 09:14:25;;;;;;;21.23;9.40;;;3.70;99.90;;;;;;5065189;28;20021;-76
2020/12/12 09:16:53;;;;;;;27.95;11.25;;;3.80;99.90;;;;;;5065135;28;20029;-76
2020/12/12 09:19:19;;;;;;;33.72;11.05;;;3.80;99.90;;;;;;5065035;28;20028;-76
2020/12/12 09:21:45;;;;;;;21.58;8.93;;;3.80;99.90;;;;;;5064988;28;20029;-74
2020/12/12 09:24:11;;;;;;;33.38;11.63;;;3.80;99.90;;;;;;5063325;28;20021;-75
2020/12/12 09:26:37;;;;;;;25.38;9.65;;;3.80;99.90;;;;;;5063488;28;20021;-75
2020/12/12 09:29:02;;;;;;;32.38;10.40;;;3.70;99.90;;;;;;5063570;28;20048;-75
2020/12/12 09:31:34;;;;;;;26.60;10.48;;;3.80;99.90;;;;;;5064873;28;20028;-74
2020/12/12 09:34:03;;;;;;;30.05;9.65;;;3.80;99.90;;;;;;5064986;28;20111;-75
2020/12/12 09:36:32;;;;;;;26.98;11.05;;;3.80;99.90;;;;;;5063824;28;20031;-76
2020/12/12 09:38:57;;;;;;;21.25;10.77;;;3.90;99.90;;;;;;5063565;28;20044;-74
2020/12/12 09:41:23;;;;;;;19.70;10.45;;;3.90;99.90;;;;;;5064253;28;20013;-76
2020/12/12 09:43:48;;;;;;;27.90;10.27;;;3.90;99.90;;;;;;5063304;28;20929;-76
2020/12/12 09:46:18;;;;;;;24.48;10.05;;;3.90;99.90;;;;;;5063438;28;20029;-74
2020/12/12 09:48:45;;;;;;;20.80;9.27;;;3.90;99.90;;;;;;5063302;28;20025;-77
2020/12/12 09:51:11;;;;;;;31.52;10.95;;;3.90;99.90;;;;;;5064413;28;20021;-77
2020/12/12 09:53:38;;;;;;;26.55;10.73;;;4.00;99.90;;;;;;5064466;28;20055;-77
2020/12/12 09:56:04;;;;;;;25.48;9.70;;;4.00;99.90;;;;;;5063153;28;20111;-76
2020/12/12 09:58:31;;;;;;;24.60;9.70;;;4.00;99.90;;;;;;5063081;28;20021;-77
2020/12/12 10:00:57;;;;;;;27.23;10.27;;;4.00;99.90;;;;;;5063251;28;20093;-76
2020/12/12 10:03:22;;;;;;;12.90;7.53;;;4.10;99.90;;;;;;5064141;28;20049;-76
2020/12/12 10:05:48;;;;;;;21.05;8.98;;;4.20;99.90;;;;;;5062742;28;20031;-75
2020/12/12 10:08:14;;;;;;;25.02;9.98;;;4.10;99.90;;;;;;5049848;28;20028;-77
2020/12/12 10:10:39;;;;;;;23.63;11.18;;;4.10;99.90;;;;;;5054026;28;20027;-74
2020/12/12 10:13:06;;;;;;;17.25;9.13;;;4.10;99.90;;;;;;5044031;28;20040;-78
2020/12/12 10:15:32;;;;;;;26.15;12.10;;;4.20;99.90;;;;;;5044504;28;20021;-77
2020/12/12 10:17:58;;;;;;;40.40;10.88;;;4.10;99.90;;;;;;5046371;28;20093;-76
2020/12/12 10:20:24;;;;;;;34.35;10.13;;;4.10;99.90;;;;;;5051425;28;20030;-75
2020/12/12 10:22:51;;;;;;;26.10;9.95;;;4.20;99.90;;;;;;5051866;28;20075;-74
2020/12/12 10:25:17;;;;;;;23.58;10.40;;;4.20;99.90;;;;;;5049058;28;20574;-75
2020/12/12 10:27:44;;;;;;;27.35;10.13;;;4.30;99.90;;;;;;5049466;28;20025;-75
2020/12/12 10:30:11;;;;;;;26.95;9.65;;;4.30;99.90;;;;;;5050860;28;20458;-77
2020/12/12 10:32:38;;;;;;;25.90;10.95;;;4.20;99.90;;;;;;5050788;28;20033;-75
2020/12/12 10:35:06;;;;;;;23.10;9.60;;;4.20;99.90;;;;;;5049332;28;20052;-76
2020/12/12 10:37:31;;;;;;;28.15;10.05;;;4.20;99.90;;;;;;5049229;28;20033;-76
2020/12/12 10:42:23;;;;;;;30.70;10.27;;;4.10;99.90;;;;;;5050762;28;20394;-75
2020/12/12 10:44:48;;;;;;;24.23;9.95;;;4.10;99.90;;;;;;5049146;28;20565;-75
2020/12/12 10:47:14;;;;;;;23.48;9.65;;;4.10;99.90;;;;;;5050449;28;20022;-74
2020/12/12 10:49:39;;;;;;;18.05;9.02;;;4.10;99.90;;;;;;5050332;28;20029;-74
2020/12/12 10:52:06;;;;;;;23.52;9.70;;;4.20;99.90;;;;;;5048690;28;20036;-76
2020/12/12 10:54:32;;;;;;;26.63;10.95;;;4.20;99.90;;;;;;5049257;28;20450;-74
2020/12/12 10:56:58;;;;;;;24.33;10.00;;;4.20;99.90;;;;;;5049353;28;20040;-75
2020/12/12 10:59:25;;;;;;;22.35;9.65;;;4.20;99.90;;;;;;5048742;28;20466;-75
2020/12/12 11:01:55;;;;;;;31.25;10.90;;;4.30;99.90;;;;;;5050524;28;20029;-75
2020/12/12 11:04:24;;;;;;;28.35;10.88;;;4.30;99.90;;;;;;5050331;28;20068;-75
2020/12/12 11:06:51;;;;;;;25.80;10.57;;;4.40;99.90;;;;;;5050525;28;20049;-75
2020/12/12 11:09:16;;;;;;;27.75;10.65;;;4.40;99.90;;;;;;5048846;28;20036;-74
2020/12/12 11:11:42;;;;;;;25.58;10.73;;;4.40;99.90;;;;;;5050503;28;20081;-74
2020/12/12 11:14:09;;;;;;;19.92;9.55;;;4.40;99.90;;;;;;5050201;28;20017;-76
2020/12/12 11:16:35;;;;;;;21.98;9.40;;;4.40;99.90;;;;;;5050697;28;20060;-75
2020/12/12 11:19:03;;;;;;;28.83;9.50;;;4.50;99.90;;;;;;5052828;28;20028;-76
2020/12/12 11:21:33;;;;;;;28.80;8.85;;;4.40;99.90;;;;;;5053976;28;20087;-75
2020/12/12 11:24:01;;;;;;;20.08;9.68;;;4.40;99.90;;;;;;5051651;28;20040;-74
2020/12/12 11:26:27;;;;;;;24.65;8.18;;;4.40;99.90;;;;;;5052704;28;20041;-75
2020/12/12 11:28:52;;;;;;;22.58;9.18;;;4.40;99.90;;;;;;5050429;28;20021;-77
2020/12/12 11:31:21;;;;;;;25.15;9.80;;;4.40;99.90;;;;;;5047895;28;20033;-75
2020/12/12 11:33:52;;;;;;;17.95;9.57;;;4.50;99.90;;;;;;5048374;28;20040;-75
2020/12/12 11:36:40;;;;;;;22.88;9.38;;;4.60;99.90;;;;;;5047601;28;20018;-75
2020/12/12 11:39:11;;;;;;;19.92;8.63;;;4.50;99.90;;;;;;5062629;28;20096;-74
2020/12/12 11:46:48;;;;;;;24.30;9.07;;;4.60;99.90;;;;;;5067656;28;20032;-75
2020/12/12 11:49:13;;;;;;;25.13;9.82;;;4.60;99.90;;;;;;5067237;28;20025;-75
2020/12/12 11:51:40;;;;;;;23.23;9.70;;;4.60;99.90;;;;;;5066765;28;20021;-76
2020/12/12 11:54:06;;;;;;;18.73;8.85;;;4.60;99.90;;;;;;5066770;28;20040;-75
2020/12/12 11:56:34;;;;;;;20.67;8.57;;;4.60;99.90;;;;;;5066594;28;20041;-77
2020/12/12 11:59:01;;;;;;;21.38;8.68;;;4.70;99.90;;;;;;5066521;28;20024;-76
2020/12/12 12:01:28;;;;;;;18.42;7.82;;;4.70;99.90;;;;;;5064970;28;20036;-75
2020/12/12 12:03:54;;;;;;;20.95;8.77;;;4.80;99.90;;;;;;5066066;28;20466;-74
2020/12/12 12:06:21;;;;;;;17.15;7.72;;;4.70;99.90;;;;;;5066187;28;20100;-75
2020/12/12 12:13:44;;;;;;;17.15;8.55;;;4.90;99.90;;;;;;5066188;28;20040;-75
2020/12/12 12:16:16;;;;;;;17.98;7.88;;;4.90;99.90;;;;;;5065982;28;20029;-76
2020/12/12 12:18:41;;;;;;;14.25;7.05;;;4.90;99.90;;;;;;5066200;28;20019;-75
2020/12/12 12:21:07;;;;;;;19.42;8.20;;;4.90;99.90;;;;;;5065843;28;20104;-75
2020/12/12 12:23:34;;;;;;;15.25;7.28;;;5.00;99.90;;;;;;5064167;28;20021;-75
2020/12/12 12:25:59;;;;;;;19.13;8.90;;;5.00;99.90;;;;;;5064943;28;20041;-77
2020/12/12 12:28:25;;;;;;;17.40;8.85;;;5.00;99.90;;;;;;5064906;28;20021;-75
2020/12/12 12:30:51;;;;;;;23.20;9.68;;;5.00;99.90;;;;;;5065605;28;20028;-75
2020/12/12 12:33:16;;;;;;;21.38;8.88;;;5.00;99.90;;;;;;5065437;28;20037;-74
2020/12/12 12:35:42;;;;;;;14.98;8.45;;;5.00;99.90;;;;;;5065448;28;20047;-75
2020/12/12 12:38:08;;;;;;;20.50;7.97;;;5.00;99.90;;;;;;5064047;28;20043;-76
2020/12/12 12:40:33;;;;;;;22.23;10.07;;;5.00;99.90;;;;;;5063008;28;20045;-75
2020/12/12 12:42:59;;;;;;;22.88;9.52;;;5.00;99.90;;;;;;5063526;28;20075;-75
2020/12/12 12:45:25;;;;;;;18.77;8.25;;;5.10;99.90;;;;;;5065134;28;20029;-74
2020/12/12 12:47:51;;;;;;;21.73;8.93;;;5.10;99.90;;;;;;5064721;28;20033;-75
2020/12/12 12:50:17;;;;;;;18.23;7.72;;;5.10;99.90;;;;;;5061798;28;20081;-75
2020/12/12 12:52:42;;;;;;;19.00;8.32;;;5.10;99.90;;;;;;5062736;28;20064;-74
2020/12/12 12:55:09;;;;;;;15.13;8.05;;;5.20;99.90;;;;;;5064494;28;20025;-75
2020/12/12 12:57:35;;;;;;;22.13;8.15;;;5.10;99.90;;;;;;5061745;28;20029;-75